Time;durP1;ratioP1;P1;durP2;ratioP2;P2;SDS_P1;SDS_P2;PMS_P1;PMS_P2;Temp;Humidity;BMP_temperature;BMP_pressure;BME280_temperature;BME280_humidity;BME280_pressure;Samples;Min_cycle;Max_cycle;Signal;HPM_P1;HPM_P2
2023/01/07 00:01:36;;;;;;;;;;;9.70;99.90;;;;;;5050496;28;19929;-68
2023/01/07 00:04:06;;;;;;;;;;;9.70;99.90;;;;;;5050360;28;19934;-69
2023/01/07 00:06:34;;;;;;;;;;;9.60;99.90;;;;;;5052606;28;19990;-68
2023/01/07 00:09:03;;;;;;;;;;;9.80;99.90;;;;;;5051745;28;19935;-68
2023/01/07 00:11:31;;;;;;;;;;;9.80;99.90;;;;;;5055096;28;19931;-70
2023/01/07 00:14:00;;;;;;;;;;;9.90;99.90;;;;;;5053813;28;19935;-68
2023/01/07 00:16:29;;;;;;;;;;;9.90;99.90;;;;;;5051187;28;19955;-69
2023/01/07 00:18:59;;;;;;;;;;;9.90;99.90;;;;;;5051049;28;20019;-69
2023/01/07 00:21:27;;;;;;;;;;;9.90;99.90;;;;;;5050156;28;20023;-68
2023/01/07 00:23:55;;;;;;;;;;;9.80;99.90;;;;;;5051852;28;19924;-68
2023/01/07 00:26:24;;;;;;;;;;;9.80;99.90;;;;;;5062263;28;19994;-68
2023/01/07 00:28:53;;;;;;;;;;;9.70;99.90;;;;;;5051028;28;20413;-69
2023/01/07 00:31:21;;;;;;;;;;;9.70;99.90;;;;;;5050384;28;19924;-68
2023/01/07 00:34:05;;;;;;;;;;;9.60;99.90;;;;;;5053946;28;19963;-67
2023/01/07 00:36:35;;;;;;;;;;;9.60;99.90;;;;;;5051340;28;20034;-68
2023/01/07 00:39:04;;;;;;;;;;;9.70;99.90;;;;;;5050200;28;20016;-66
2023/01/07 00:41:32;;;;;;;;;;;9.80;99.90;;;;;;5048420;28;20099;-69
2023/01/07 00:44:00;;;;;;;;;;;9.70;99.90;;;;;;5052379;28;20275;-69
2023/01/07 00:46:28;;;;;;;;;;;9.60;99.90;;;;;;5070089;28;20380;-69
2023/01/07 00:48:57;;;;;;;;;;;9.60;99.90;;;;;;5070097;28;19924;-69
2023/01/07 00:51:25;;;;;;;;;;;9.60;99.90;;;;;;5069876;28;19925;-69
2023/01/07 00:53:53;;;;;;;;;;;9.60;99.90;;;;;;5074069;28;19940;-69
2023/01/07 00:56:20;;;;;;;;;;;9.50;99.90;;;;;;5074115;28;19924;-69
2023/01/07 00:58:48;;;;;;;;;;;9.50;99.90;;;;;;5077299;28;20457;-67
2023/01/07 01:01:16;;;;;;;;;;;9.60;99.90;;;;;;5074183;28;20019;-67
2023/01/07 01:03:44;;;;;;;;;;;9.50;99.90;;;;;;5077545;28;19924;-67
2023/01/07 01:06:15;;;;;;;;;;;9.50;99.90;;;;;;5078526;28;19924;-67
2023/01/07 01:08:43;;;;;;;;;;;9.50;99.90;;;;;;5070125;28;19934;-70
2023/01/07 01:11:12;;;;;;;;;;;9.60;99.90;;;;;;5072625;28;20011;-66
2023/01/07 01:13:39;;;;;;;;;;;9.60;99.90;;;;;;5093309;28;19963;-68
2023/01/07 01:16:09;;;;;;;;;;;9.50;99.90;;;;;;5085869;28;19924;-67
2023/01/07 01:18:37;;;;;;;;;;;9.40;99.90;;;;;;5093624;28;19993;-65
2023/01/07 01:21:05;;;;;;;;;;;9.50;99.90;;;;;;5092245;28;19939;-66
2023/01/07 01:23:34;;;;;;;;;;;9.50;99.90;;;;;;5093071;28;20022;-66
2023/01/07 01:26:03;;;;;;;;;;;9.40;99.90;;;;;;5092947;28;20018;-68
2023/01/07 01:28:31;;;;;;;;;;;9.50;99.90;;;;;;5093123;28;19924;-67
2023/01/07 01:30:58;;;;;;;;;;;9.50;99.90;;;;;;5078963;28;19924;-66
2023/01/07 01:33:26;;;;;;;;;;;9.50;99.90;;;;;;5086972;28;19924;-68
2023/01/07 01:35:54;;;;;;;;;;;9.50;99.90;;;;;;5083070;28;20015;-67
2023/01/07 01:38:22;;;;;;;;;;;9.70;99.90;;;;;;5073366;28;20406;-66
2023/01/07 01:40:51;;;;;;;;;;;9.80;99.90;;;;;;5072829;28;20015;-66
2023/01/07 01:43:26;;;;;;;;;;;9.70;99.90;;;;;;5074404;28;20015;-67
2023/01/07 01:45:54;;;;;;;;;;;9.70;99.90;;;;;;5079018;28;20022;-66
2023/01/07 01:48:22;;;;;;;;;;;9.80;99.90;;;;;;5094364;28;19925;-68
2023/01/07 01:50:50;;;;;;;;;;;9.80;99.90;;;;;;5076549;28;20365;-66
2023/01/07 01:53:19;;;;;;;;;;;9.70;99.90;;;;;;5076873;28;20011;-66
2023/01/07 01:55:49;;;;;;;;;;;9.60;99.90;;;;;;5094415;28;19927;-66
2023/01/07 01:58:20;;;;;;;;;;;9.50;99.90;;;;;;5094486;28;20448;-67
2023/01/07 02:00:48;;;;;;;;;;;9.40;99.90;;;;;;5093579;28;19951;-66
2023/01/07 02:03:18;;;;;;;;;;;9.50;99.90;;;;;;5092956;28;19970;-66
2023/01/07 02:05:46;;;;;;;;;;;9.50;99.90;;;;;;5086490;28;19928;-67
2023/01/07 02:08:20;;;;;;;;;;;9.50;99.90;;;;;;5094160;28;20336;-66
2023/01/07 02:10:54;;;;;;;;;;;9.50;99.90;;;;;;5093500;28;20344;-66
2023/01/07 02:13:30;;;;;;;;;;;9.40;99.90;;;;;;5074131;28;19931;-66
2023/01/07 02:16:01;;;;;;;;;;;9.40;99.90;;;;;;5073820;28;19925;-66
2023/01/07 02:18:37;;;;;;;;;;;9.30;99.90;;;;;;5074207;28;19924;-68
2023/01/07 02:21:11;;;;;;;;;;;9.30;99.90;;;;;;5072957;28;20011;-67
2023/01/07 02:23:53;;;;;;;;;;;9.30;99.90;;;;;;5080805;28;20023;-67
2023/01/07 02:26:39;;;;;;;;;;;9.30;99.90;;;;;;5091090;28;19924;-66
2023/01/07 02:29:32;;;;;;;;;;;9.30;99.90;;;;;;5073694;28;19931;-66
2023/01/07 02:32:19;;;;;;;;;;;9.30;99.90;;;;;;5073562;28;19924;-67
2023/01/07 02:34:51;;;;;;;;;;;9.40;99.90;;;;;;5085403;28;20673;-70
2023/01/07 02:37:23;;;;;;;;;;;9.40;99.90;;;;;;5093478;28;19931;-67
2023/01/07 02:39:57;;;;;;;;;;;9.40;99.90;;;;;;5077989;28;20356;-67
2023/01/07 02:42:30;;;;;;;;;;;9.50;99.90;;;;;;5093649;28;19924;-68
2023/01/07 02:45:02;;;;;;;;;;;9.40;99.90;;;;;;5093220;28;19924;-67
2023/01/07 02:47:34;;;;;;;;;;;9.50;99.90;;;;;;5093604;28;19924;-67
2023/01/07 02:50:01;;;;;;;;;;;9.60;99.90;;;;;;5092610;28;20022;-67
2023/01/07 02:52:31;;;;;;;;;;;9.60;99.90;;;;;;5093243;28;19928;-67
2023/01/07 02:55:00;;;;;;;;;;;9.70;99.90;;;;;;5091538;28;20385;-66
2023/01/07 02:57:40;;;;;;;;;;;9.70;99.90;;;;;;5087513;28;19932;-67
2023/01/07 03:00:16;;;;;;;;;;;9.70;99.90;;;;;;5072166;28;19931;-68
2023/01/07 03:02:52;;;;;;;;;;;9.70;99.90;;;;;;5073085;28;19979;-67
2023/01/07 03:05:30;;;;;;;;;;;9.70;99.90;;;;;;5092195;28;19956;-67
2023/01/07 03:08:04;;;;;;;;;;;9.60;99.90;;;;;;5092246;28;20023;-68
2023/01/07 03:10:35;;;;;;;;;;;9.70;99.90;;;;;;5092208;28;20385;-67
2023/01/07 03:13:04;;;;;;;;;;;9.60;99.90;;;;;;5093352;28;19963;-67
2023/01/07 03:15:37;;;;;;;;;;;9.60;99.90;;;;;;5091820;28;20385;-67
2023/01/07 03:18:08;;;;;;;;;;;9.70;99.90;;;;;;5092503;28;20485;-68
2023/01/07 03:20:37;;;;;;;;;;;9.80;99.90;;;;;;5091908;28;19928;-67
2023/01/07 03:23:06;;;;;;;;;;;10.00;99.90;;;;;;5092596;28;20416;-68
2023/01/07 03:25:35;;;;;;;;;;;9.90;99.90;;;;;;5092491;28;19985;-67
2023/01/07 03:28:04;;;;;;;;;;;9.80;99.90;;;;;;5092804;28;20031;-67
2023/01/07 03:30:32;;;;;;;;;;;9.90;99.90;;;;;;5091908;28;20308;-67
2023/01/07 03:33:01;;;;;;;;;;;9.80;99.90;;;;;;5073826;28;19924;-67
2023/01/07 03:35:31;;;;;;;;;;;9.80;99.90;;;;;;5090230;28;19982;-67
2023/01/07 03:38:00;;;;;;;;;;;9.80;99.90;;;;;;5091036;28;19967;-66
2023/01/07 03:40:28;;;;;;;;;;;9.90;99.90;;;;;;5091541;28;20007;-67
2023/01/07 03:42:54;;;;;;;;;;;10.10;99.90;;;;;;5092388;28;20480;-66
2023/01/07 03:45:23;;;;;;;;;;;10.10;99.90;;;;;;5092159;28;19967;-67
2023/01/07 03:47:52;;;;;;;;;;;10.10;99.90;;;;;;5092026;28;19928;-67
2023/01/07 03:50:20;;;;;;;;;;;10.20;99.90;;;;;;5071482;28;19925;-69
2023/01/07 03:52:49;;;;;;;;;;;10.10;99.90;;;;;;5071855;28;19978;-67
2023/01/07 03:55:17;;;;;;;;;;;9.90;99.90;;;;;;5071840;28;20301;-66
2023/01/07 03:57:45;;;;;;;;;;;9.70;99.90;;;;;;5071907;28;19932;-66
2023/01/07 04:00:13;;;;;;;;;;;9.70;99.90;;;;;;5086507;28;20011;-67
2023/01/07 04:02:41;;;;;;;;;;;9.60;99.90;;;;;;5081610;28;19924;-65
2023/01/07 04:05:09;;;;;;;;;;;9.50;99.90;;;;;;5077833;28;19959;-67
2023/01/07 04:07:37;;;;;;;;;;;9.40;99.90;;;;;;5085968;28;19966;-66
2023/01/07 04:10:07;;;;;;;;;;;9.30;99.90;;;;;;5071997;28;19963;-68
2023/01/07 04:12:35;;;;;;;;;;;9.30;99.90;;;;;;5070695;28;19928;-66
2023/01/07 04:15:03;;;;;;;;;;;9.20;99.90;;;;;;5071215;28;19931;-67
2023/01/07 04:17:31;;;;;;;;;;;9.20;99.90;;;;;;5073894;28;19931;-66
2023/01/07 04:19:58;;;;;;;;;;;9.20;99.90;;;;;;5073558;28;19932;-66
2023/01/07 04:22:26;;;;;;;;;;;9.10;99.90;;;;;;5071682;28;20039;-67
2023/01/07 04:24:54;;;;;;;;;;;9.20;99.90;;;;;;5070924;28;20023;-67
2023/01/07 04:27:23;;;;;;;;;;;9.20;99.90;;;;;;5070681;28;19931;-67
2023/01/07 04:29:50;;;;;;;;;;;9.20;99.90;;;;;;5070616;28;20028;-67
2023/01/07 04:32:18;;;;;;;;;;;9.30;99.90;;;;;;5071324;28;19932;-67
2023/01/07 04:34:46;;;;;;;;;;;9.30;99.90;;;;;;5077322;28;19962;-67
2023/01/07 04:37:13;;;;;;;;;;;9.40;99.90;;;;;;5081808;28;20286;-66
2023/01/07 04:39:41;;;;;;;;;;;9.50;99.90;;;;;;5077503;28;20019;-67
2023/01/07 04:42:09;;;;;;;;;;;9.60;99.90;;;;;;5083492;28;20007;-67
2023/01/07 04:44:38;;;;;;;;;;;9.80;99.90;;;;;;5070381;28;19933;-67
2023/01/07 04:47:05;;;;;;;;;;;10.00;99.90;;;;;;5070242;28;19928;-67
2023/01/07 04:49:33;;;;;;;;;;;10.10;99.90;;;;;;5069946;28;20660;-67
2023/01/07 04:52:01;;;;;;;;;;;10.10;99.90;;;;;;5069535;28;20390;-66
2023/01/07 04:54:28;;;;;;;;;;;10.20;99.90;;;;;;5069985;28;20023;-67
2023/01/07 04:56:56;;;;;;;;;;;10.30;99.90;;;;;;5065441;28;20043;-67
2023/01/07 04:59:24;;;;;;;;;;;10.40;99.90;;;;;;5070182;28;19932;-68
2023/01/07 05:01:53;;;;;;;;;;;10.40;99.90;;;;;;5074864;28;20466;-66
2023/01/07 05:04:21;;;;;;;;;;;10.40;99.90;;;;;;5082540;28;19931;-67
2023/01/07 05:06:49;;;;;;;;;;;10.30;99.90;;;;;;5071087;28;19971;-68
2023/01/07 05:09:16;;;;;;;;;;;10.40;99.90;;;;;;5070843;28;19925;-67
2023/01/07 05:11:44;;;;;;;;;;;10.40;99.90;;;;;;5070129;28;19924;-67
2023/01/07 05:14:12;;;;;;;;;;;10.40;99.90;;;;;;5059133;28;20039;-67
2023/01/07 05:16:39;;;;;;;;;;;10.40;99.90;;;;;;5051068;28;19972;-67
2023/01/07 05:19:09;;;;;;;;;;;10.40;99.90;;;;;;5051109;28;19931;-67
2023/01/07 05:21:37;;;;;;;;;;;10.50;99.90;;;;;;5050154;28;19929;-67
2023/01/07 05:24:04;;;;;;;;;;;10.70;99.90;;;;;;5050991;28;20011;-66
2023/01/07 05:26:32;;;;;;;;;;;10.70;99.90;;;;;;5051163;28;19931;-67
2023/01/07 05:29:00;;;;;;;;;;;10.80;99.90;;;;;;5051099;28;20019;-67
2023/01/07 05:31:27;;;;;;;;;;;10.90;99.90;;;;;;5050297;28;19964;-67
2023/01/07 05:33:55;;;;;;;;;;;10.90;99.90;;;;;;5049294;28;19931;-67
2023/01/07 05:36:24;;;;;;;;;;;11.00;99.90;;;;;;5068139;28;19931;-68
2023/01/07 05:38:52;;;;;;;;;;;11.00;99.90;;;;;;5072057;28;19967;-67
2023/01/07 05:41:19;;;;;;;;;;;11.00;99.90;;;;;;5073834;28;19931;-67
2023/01/07 05:43:48;;;;;;;;;;;11.00;99.90;;;;;;5074265;28;20468;-67
2023/01/07 05:46:15;;;;;;;;;;;11.00;99.90;;;;;;5097869;22;19955;-65
2023/01/07 05:48:43;;;;;;;;;;;10.90;99.90;;;;;;5073809;28;19944;-64
2023/01/07 05:51:11;;;;;;;;;;;11.00;99.90;;;;;;5073790;28;19968;-64
2023/01/07 05:53:40;;;;;;;;;;;11.00;99.90;;;;;;5073818;28;19966;-65
2023/01/07 05:56:08;;;;;;;;;;;11.10;99.90;;;;;;5074267;28;19946;-65
2023/01/07 05:58:35;;;;;;;;;;;11.00;99.90;;;;;;5068650;28;19929;-65
2023/01/07 06:01:03;;;;;;;;;;;11.00;99.90;;;;;;5053440;28;19979;-64
2023/01/07 06:03:31;;;;;;;;;;;10.90;99.90;;;;;;5053948;28;19924;-64
2023/01/07 06:06:05;;;;;;;;;;;10.80;99.90;;;;;;5053493;28;19929;-65
2023/01/07 06:08:33;;;;;;;;;;;10.90;99.90;;;;;;5072689;28;19925;-64
2023/01/07 06:11:02;;;;;;;;;;;10.80;99.90;;;;;;5062407;28;19956;-64
2023/01/07 06:13:30;;;;;;;;;;;10.90;99.90;;;;;;5052008;28;19924;-64
2023/01/07 06:15:59;;;;;;;;;;;10.90;99.90;;;;;;5051899;28;19931;-64
2023/01/07 06:18:27;;;;;;;;;;;10.90;99.90;;;;;;5061297;28;20324;-65
2023/01/07 06:20:54;;;;;;;;;;;10.80;99.90;;;;;;5054310;28;19939;-65
2023/01/07 06:23:22;;;;;;;;;;;10.80;99.90;;;;;;5052903;28;20382;-64
2023/01/07 06:25:50;;;;;;;;;;;10.90;99.90;;;;;;5057878;28;19939;-65
2023/01/07 06:28:19;;;;;;;;;;;10.90;99.90;;;;;;5056166;28;20334;-64
2023/01/07 06:30:47;;;;;;;;;;;10.90;99.90;;;;;;5062067;28;20444;-65
2023/01/07 06:33:16;;;;;;;;;;;11.00;99.90;;;;;;5054707;28;19983;-64
2023/01/07 06:35:44;;;;;;;;;;;11.00;99.90;;;;;;5061989;28;20011;-65
2023/01/07 06:38:12;;;;;;;;;;;11.00;99.90;;;;;;5056124;28;19932;-65
2023/01/07 06:40:40;;;;;;;;;;;11.00;99.90;;;;;;5054342;28;20372;-65
2023/01/07 06:43:08;;;;;;;;;;;10.90;99.90;;;;;;5053189;28;19932;-65
2023/01/07 06:45:37;;;;;;;;;;;10.90;99.90;;;;;;5045150;28;19929;-64
2023/01/07 06:48:08;;;;;;;;;;;10.80;99.90;;;;;;5045961;28;20397;-64
2023/01/07 06:50:35;;;;;;;;;;;10.70;99.90;;;;;;5034683;28;19940;-65
2023/01/07 06:53:03;;;;;;;;;;;10.60;99.90;;;;;;5032892;28;19931;-64
2023/01/07 06:55:31;;;;;;;;;;;10.60;99.90;;;;;;5026412;28;20008;-64
2023/01/07 06:57:58;;;;;;;;;;;10.50;99.90;;;;;;5028058;28;20025;-64
2023/01/07 07:00:26;;;;;;;;;;;10.40;99.90;;;;;;5025709;28;19925;-65
2023/01/07 07:02:55;;;;;;;;;;;10.40;99.90;;;;;;5033184;28;19933;-64
2023/01/07 07:05:23;;;;;;;;;;;10.40;99.90;;;;;;5023182;28;19925;-63
2023/01/07 07:07:50;;;;;;;;;;;10.40;99.90;;;;;;5051251;28;20442;-64
2023/01/07 07:10:18;;;;;;;;;;;10.40;99.90;;;;;;5037137;28;20393;-64
2023/01/07 07:12:46;;;;;;;;;;;10.40;99.90;;;;;;5028927;28;20477;-64
2023/01/07 07:15:13;;;;;;;;;;;10.50;99.90;;;;;;5035425;28;19925;-64
2023/01/07 07:17:41;;;;;;;;;;;10.50;99.90;;;;;;5049797;28;19929;-64
2023/01/07 07:20:11;;;;;;;;;;;10.60;99.90;;;;;;5036028;28;19943;-64
2023/01/07 07:22:43;;;;;;;;;;;10.50;99.90;;;;;;5035381;28;20457;-65
2023/01/07 07:25:11;;;;;;;;;;;10.40;99.90;;;;;;5033376;28;19932;-64
2023/01/07 07:27:39;;;;;;;;;;;10.30;99.90;;;;;;5030789;28;19983;-64
2023/01/07 07:30:07;;;;;;;;;;;10.10;99.90;;;;;;5030998;28;19931;-65
2023/01/07 07:32:35;;;;;;;;;;;10.00;99.90;;;;;;5036278;28;20388;-64
2023/01/07 07:35:03;;;;;;;;;;;9.80;99.90;;;;;;5019378;28;19926;-64
2023/01/07 07:37:32;;;;;;;;;;;9.60;99.90;;;;;;5036863;28;19958;-64
2023/01/07 07:39:59;;;;;;;;;;;9.60;99.90;;;;;;5031388;28;19943;-64
2023/01/07 07:42:27;;;;;;;;;;;9.40;99.90;;;;;;5031715;28;19925;-64
2023/01/07 07:44:55;;;;;;;;;;;9.40;99.90;;;;;;5042157;28;19924;-64
2023/01/07 07:47:22;;;;;;;;;;;9.40;99.90;;;;;;5051488;28;19935;-64
2023/01/07 07:49:50;;;;;;;;;;;9.40;99.90;;;;;;5051804;28;19942;-64
2023/01/07 07:52:18;;;;;;;;;;;9.30;99.90;;;;;;5051600;28;19924;-64
2023/01/07 07:54:47;;;;;;;;;;;9.20;99.90;;;;;;5061183;28;19966;-64
2023/01/07 07:57:15;;;;;;;;;;;9.20;99.90;;;;;;5055193;28;19932;-64
2023/01/07 07:59:42;;;;;;;;;;;9.20;99.90;;;;;;5054640;28;19924;-64
2023/01/07 08:02:12;;;;;;;;;;;9.30;99.90;;;;;;5055836;28;19924;-64
2023/01/07 08:04:40;;;;;;;;;;;9.20;99.90;;;;;;5050542;28;19953;-64
2023/01/07 08:07:09;;;;;;;;;;;9.20;99.90;;;;;;5054248;28;19944;-64
2023/01/07 08:09:37;;;;;;;;;;;9.20;99.90;;;;;;5054236;28;20008;-64
2023/01/07 08:12:06;;;;;;;;;;;9.30;99.90;;;;;;5054069;28;19924;-64
2023/01/07 08:14:34;;;;;;;;;;;9.40;99.90;;;;;;5053629;28;20336;-64
2023/01/07 08:17:01;;;;;;;;;;;9.40;99.90;;;;;;5055835;28;19924;-64
2023/01/07 08:19:29;;;;;;;;;;;9.40;99.90;;;;;;5053985;28;19935;-63
2023/01/07 08:21:56;;;;;;;;;;;9.40;99.90;;;;;;5053260;28;20298;-64
2023/01/07 08:24:24;;;;;;;;;;;9.50;99.90;;;;;;5052535;28;20473;-64
2023/01/07 08:26:54;;;;;;;;;;;9.60;99.90;;;;;;5060026;28;19925;-65
2023/01/07 08:29:23;;;;;;;;;;;9.50;99.90;;;;;;5052976;28;19929;-64
2023/01/07 08:31:51;;;;;;;;;;;9.50;99.90;;;;;;5054619;28;19929;-65
2023/01/07 08:34:19;;;;;;;;;;;9.40;99.90;;;;;;5050265;28;19925;-65
2023/01/07 08:36:47;;;;;;;;;;;9.40;99.90;;;;;;5047957;28;19948;-67
2023/01/07 08:39:14;;;;;;;;;;;9.30;99.90;;;;;;5056008;28;19929;-65
2023/01/07 08:41:42;;;;;;;;;;;9.30;99.90;;;;;;5067792;28;19925;-65
2023/01/07 08:44:10;;;;;;;;;;;9.30;99.90;;;;;;5049900;28;20393;-65
2023/01/07 08:46:40;;;;;;;;;;;9.20;99.90;;;;;;5050005;28;20366;-65
2023/01/07 08:49:09;;;;;;;;;;;9.20;99.90;;;;;;5051585;28;19924;-65
2023/01/07 08:51:36;;;;;;;;;;;9.20;99.90;;;;;;5056212;28;19934;-64
2023/01/07 08:54:04;;;;;;;;;;;9.20;99.90;;;;;;5048312;28;20320;-64
2023/01/07 08:56:32;;;;;;;;;;;9.20;99.90;;;;;;5055667;28;19947;-65
2023/01/07 08:59:00;;;;;;;;;;;9.20;99.90;;;;;;5070331;28;20099;-64
2023/01/07 09:01:28;;;;;;;;;;;9.20;99.90;;;;;;5070188;28;20309;-64
2023/01/07 09:03:57;;;;;;;;;;;9.20;99.90;;;;;;5071121;28;19924;-65
2023/01/07 09:06:25;;;;;;;;;;;9.20;99.90;;;;;;5070178;28;19935;-65
2023/01/07 09:08:52;;;;;;;;;;;9.20;99.90;;;;;;5070085;28;20532;-65
2023/01/07 09:11:20;;;;;;;;;;;9.20;99.90;;;;;;5070231;28;19924;-64
2023/01/07 09:13:48;;;;;;;;;;;9.20;99.90;;;;;;5054319;28;19929;-65
2023/01/07 09:16:15;;;;;;;;;;;9.20;99.90;;;;;;5054610;28;19928;-65
2023/01/07 09:18:44;;;;;;;;;;;9.30;99.90;;;;;;5054533;28;19924;-64
2023/01/07 09:21:13;;;;;;;;;;;9.20;99.90;;;;;;5060849;28;19931;-64
2023/01/07 09:23:41;;;;;;;;;;;9.30;99.90;;;;;;5074849;28;19924;-65
2023/01/07 09:26:08;;;;;;;;;;;9.30;99.90;;;;;;5074501;28;19931;-64
2023/01/07 09:28:36;;;;;;;;;;;9.30;99.90;;;;;;5074338;28;19963;-65
2023/01/07 09:31:04;;;;;;;;;;;9.30;99.90;;;;;;5073947;28;20317;-65
2023/01/07 09:33:32;;;;;;;;;;;9.30;99.90;;;;;;5074476;28;19925;-64
2023/01/07 09:36:00;;;;;;;;;;;9.30;99.90;;;;;;5066963;28;20386;-65
2023/01/07 09:38:29;;;;;;;;;;;9.30;99.90;;;;;;5054259;28;19928;-65
2023/01/07 09:40:56;;;;;;;;;;;9.40;99.90;;;;;;5053794;28;20378;-64
2023/01/07 09:43:27;;;;;;;;;;;9.40;99.90;;;;;;5054013;28;19931;-65
2023/01/07 09:46:16;;;;;;;;;;;9.40;99.90;;;;;;5053846;28;19931;-65
2023/01/07 09:48:45;;;;;;;;;;;9.40;99.90;;;;;;5054147;28;19924;-65
2023/01/07 09:51:16;;;;;;;;;;;9.40;99.90;;;;;;5054277;28;19931;-65
2023/01/07 09:53:47;;;;;;;;;;;9.40;99.90;;;;;;5059672;28;19925;-65
2023/01/07 09:56:17;;;;;;;;;;;9.40;99.90;;;;;;5054280;28;20032;-65
2023/01/07 09:58:47;;;;;;;;;;;9.40;99.90;;;;;;5053614;28;20325;-65
2023/01/07 10:01:19;;;;;;;;;;;9.40;99.90;;;;;;5053465;28;19925;-65
2023/01/07 10:03:50;;;;;;;;;;;9.40;99.90;;;;;;5054180;28;19944;-65
2023/01/07 10:06:20;;;;;;;;;;;9.40;99.90;;;;;;5065031;28;19931;-64
2023/01/07 10:09:13;;;;;;;;;;;9.50;99.90;;;;;;5073825;28;19967;-65
2023/01/07 10:11:45;;;;;;;;;;;9.50;99.90;;;;;;5063370;28;20014;-65
2023/01/07 10:14:25;;;;;;;;;;;9.60;99.90;;;;;;5053469;28;19968;-64
2023/01/07 10:16:55;;;;;;;;;;;9.60;99.90;;;;;;5027435;28;19932;-65
2023/01/07 10:19:26;;;;;;;;;;;9.60;99.90;;;;;;5033336;28;19932;-63
2023/01/07 10:21:55;;;;;;;;;;;9.70;99.90;;;;;;5068783;28;20329;-63
2023/01/07 10:24:26;;;;;;;;;;;9.70;99.90;;;;;;5072696;28;20393;-63
2023/01/07 10:26:56;;;;;;;;;;;9.80;99.90;;;;;;5073570;28;20471;-64
2023/01/07 10:29:29;;;;;;;;;;;9.80;99.90;;;;;;5073245;28;20332;-63
2023/01/07 10:31:59;;;;;;;;;;;9.80;99.90;;;;;;5070915;28;19931;-63
2023/01/07 10:34:31;;;;;;;;;;;9.90;99.90;;;;;;5073487;28;20013;-64
2023/01/07 10:37:01;;;;;;;;;;;9.90;99.90;;;;;;5073480;28;20023;-64
2023/01/07 10:39:33;;;;;;;;;;;10.00;99.90;;;;;;5072835;28;20427;-63
2023/01/07 10:42:04;;;;;;;;;;;10.00;99.90;;;;;;5068961;28;19931;-64
2023/01/07 10:44:45;;;;;;;;;;;10.00;99.90;;;;;;5052075;28;19931;-64
2023/01/07 10:47:17;;;;;;;;;;;10.10;99.90;;;;;;5065665;28;20007;-64
2023/01/07 10:49:54;;;;;;;;;;;10.10;99.90;;;;;;5072364;28;19925;-63
2023/01/07 10:52:27;;;;;;;;;;;10.10;99.90;;;;;;5073200;28;19931;-64
2023/01/07 10:55:02;;;;;;;;;;;10.10;99.90;;;;;;5072858;28;19925;-64
2023/01/07 10:57:31;;;;;;;;;;;10.20;99.90;;;;;;5072853;28;19978;-64
2023/01/07 11:00:01;;;;;;;;;;;10.20;99.90;;;;;;5071756;28;20117;-63
2023/01/07 11:02:29;;;;;;;;;;;10.20;99.90;;;;;;5071961;28;19925;-64
2023/01/07 11:04:57;;;;;;;;;;;10.20;99.90;;;;;;5072818;28;19925;-63
2023/01/07 11:07:29;;;;;;;;;;;10.20;99.90;;;;;;5072712;28;20032;-62
2023/01/07 11:10:00;;;;;;;;;;;10.20;99.90;;;;;;5072057;28;19925;-64
2023/01/07 11:12:32;;;;;;;;;;;10.20;99.90;;;;;;5064346;28;19956;-64
2023/01/07 11:15:02;;;;;;;;;;;10.20;99.90;;;;;;5052144;28;20325;-65
2023/01/07 11:17:33;;;;;;;;;;;10.30;99.90;;;;;;5053687;28;19925;-65
2023/01/07 11:20:01;;;;;;;;;;;10.30;99.90;;;;;;5051576;28;19976;-65
2023/01/07 11:22:30;;;;;;;;;;;10.30;99.90;;;;;;5052965;28;19924;-64
2023/01/07 11:25:00;;;;;;;;;;;10.30;99.90;;;;;;5052856;28;20289;-65
2023/01/07 11:27:28;;;;;;;;;;;10.30;99.90;;;;;;5052461;28;19925;-64
2023/01/07 11:29:58;;;;;;;;;;;10.30;99.90;;;;;;5051870;28;20011;-63
2023/01/07 11:32:27;;;;;;;;;;;10.30;99.90;;;;;;5052690;28;20473;-64
2023/01/07 11:34:56;;;;;;;;;;;10.30;99.90;;;;;;5052384;28;19924;-64
2023/01/07 11:37:31;;;;;;;;;;;10.40;99.90;;;;;;5052516;28;19925;-63
2023/01/07 11:40:00;;;;;;;;;;;10.40;99.90;;;;;;5051934;28;19982;-65
2023/01/07 11:42:41;;;;;;;;;;;10.40;99.90;;;;;;5051962;28;20437;-63
2023/01/07 11:45:12;;;;;;;;;;;10.40;99.90;;;;;;5176899;22;20338;-65
2023/01/07 11:47:44;;;;;;;;;;;10.40;99.90;;;;;;5104510;28;19924;-65
2023/01/07 11:50:20;;;;;;;;;;;10.40;99.90;;;;;;5112151;28;19923;-66
2023/01/07 11:52:54;;;;;;;;;;;10.50;99.90;;;;;;5112845;28;20026;-66
2023/01/07 11:55:23;;;;;;;;;;;10.40;99.90;;;;;;5105900;28;20019;-65
2023/01/07 11:57:55;;;;;;;;;;;10.40;99.90;;;;;;5072126;28;19971;-65
2023/01/07 12:00:42;;;;;;;;;;;10.40;99.90;;;;;;5071443;28;19931;-65
2023/01/07 12:03:11;;;;;;;;;;;10.40;99.90;;;;;;5072027;28;19928;-65
2023/01/07 12:05:39;;;;;;;;;;;10.40;99.90;;;;;;5072019;28;20022;-65
2023/01/07 12:08:18;;;;;;;;;;;10.30;99.90;;;;;;5071211;28;22342;-65
2023/01/07 12:10:53;;;;;;;;;;;10.40;99.90;;;;;;5071237;28;20408;-66
2023/01/07 12:13:24;;;;;;;;;;;10.30;99.90;;;;;;5092714;28;19930;-65
2023/01/07 12:15:52;;;;;;;;;;;10.40;99.90;;;;;;5105806;28;19953;-65
2023/01/07 12:18:38;;;;;;;;;;;10.40;99.90;;;;;;5103750;28;20418;-65
2023/01/07 12:21:20;;;;;;;;;;;10.30;99.90;;;;;;5111478;28;19924;-65
2023/01/07 12:23:54;;;;;;;;;;;10.30;99.90;;;;;;5112400;28;19923;-65
2023/01/07 12:26:24;;;;;;;;;;;10.30;99.90;;;;;;5096247;28;19931;-65
2023/01/07 12:29:00;;;;;;;;;;;10.30;99.90;;;;;;5071573;28;20421;-65
2023/01/07 12:31:31;;;;;;;;;;;10.30;99.90;;;;;;5071175;28;19932;-66
2023/01/07 12:34:07;;;;;;;;;;;10.30;99.90;;;;;;5071578;28;19928;-66
2023/01/07 12:36:39;;;;;;;;;;;10.30;99.90;;;;;;5071592;28;19924;-66
2023/01/07 12:39:09;;;;;;;;;;;10.30;99.90;;;;;;5071667;28;19935;-66
2023/01/07 12:41:40;;;;;;;;;;;10.30;99.90;;;;;;5071188;28;19928;-66
2023/01/07 12:44:11;;;;;;;;;;;10.30;99.90;;;;;;5087551;28;19923;-67
2023/01/07 12:46:41;;;;;;;;;;;10.30;99.90;;;;;;5085807;28;20369;-66
2023/01/07 12:49:14;;;;;;;;;;;10.30;99.90;;;;;;5095049;28;19981;-67
2023/01/07 12:51:43;;;;;;;;;;;10.20;99.90;;;;;;5094066;28;19938;-66
2023/01/07 12:54:14;;;;;;;;;;;10.30;99.90;;;;;;5090071;28;20011;-65
2023/01/07 12:56:46;;;;;;;;;;;10.30;99.90;;;;;;5088615;28;20011;-65
2023/01/07 12:59:17;;;;;;;;;;;10.30;99.90;;;;;;5087717;28;19948;-66
2023/01/07 13:02:10;;;;;;;;;;;10.20;99.90;;;;;;5087300;28;19924;-65
2023/01/07 13:04:41;;;;;;;;;;;10.20;99.90;;;;;;5086450;28;19931;-66
2023/01/07 13:07:13;;;;;;;;;;;10.20;99.90;;;;;;5092019;28;19988;-65
2023/01/07 13:09:45;;;;;;;;;;;10.20;99.90;;;;;;5088402;28;19923;-66
2023/01/07 13:12:45;;;;;;;;;;;10.10;99.90;;;;;;5088169;28;20466;-66
2023/01/07 13:15:20;;;;;;;;;;;10.20;99.90;;;;;;5088735;28;20009;-66
2023/01/07 13:17:48;;;;;;;;;;;10.20;99.90;;;;;;5090249;28;19959;-65
2023/01/07 13:20:17;;;;;;;;;;;10.20;99.90;;;;;;5083009;28;19935;-65
2023/01/07 13:22:46;;;;;;;;;;;10.10;99.90;;;;;;5090266;28;19923;-66
2023/01/07 13:25:21;;;;;;;;;;;10.10;99.90;;;;;;5081455;28;20023;-66
2023/01/07 13:27:59;;;;;;;;;;;10.10;99.90;;;;;;5090101;28;19936;-66
2023/01/07 13:30:31;;;;;;;;;;;10.10;99.90;;;;;;5090466;28;19950;-66
2023/01/07 13:33:04;;;;;;;;;;;10.10;99.90;;;;;;5084913;28;20024;-66
2023/01/07 13:35:42;;;;;;;;;;;10.10;99.90;;;;;;5083336;28;20014;-66
2023/01/07 13:38:21;;;;;;;;;;;10.20;99.90;;;;;;5086497;28;19924;-66
2023/01/07 13:40:53;;;;;;;;;;;10.10;99.90;;;;;;5086213;28;19960;-65
2023/01/07 13:43:29;;;;;;;;;;;10.10;99.90;;;;;;5091360;28;20018;-65
2023/01/07 13:45:59;;;;;;;;;;;10.10;99.90;;;;;;5083031;28;20321;-65
2023/01/07 13:48:53;;;;;;;;;;;10.10;99.90;;;;;;5084141;28;19931;-66
2023/01/07 13:51:26;;;;;;;;;;;10.10;99.90;;;;;;5082469;28;20397;-66
2023/01/07 13:53:53;;;;;;;;;;;10.10;99.90;;;;;;5084457;28;19934;-66
2023/01/07 13:56:36;;;;;;;;;;;10.10;99.90;;;;;;5087101;28;19924;-65
2023/01/07 13:59:26;;;;;;;;;;;10.10;99.90;;;;;;5087674;28;19956;-65
2023/01/07 14:02:14;;;;;;;;;;;10.10;99.90;;;;;;5086858;28;19931;-66
2023/01/07 14:04:47;;;;;;;;;;;10.10;99.90;;;;;;5086072;28;20010;-66
2023/01/07 14:07:15;;;;;;;;;;;10.10;99.90;;;;;;5091008;28;20022;-65
2023/01/07 14:09:42;;;;;;;;;;;10.10;99.90;;;;;;5087789;28;19946;-66
2023/01/07 14:12:29;;;;;;;;;;;10.10;99.90;;;;;;5088207;28;20015;-65
2023/01/07 14:15:12;;;;;;;;;;;10.10;99.90;;;;;;5089308;28;19932;-66
2023/01/07 14:17:46;;;;;;;;;;;10.10;99.90;;;;;;5084968;28;20205;-66
2023/01/07 14:20:18;;;;;;;;;;;10.10;99.90;;;;;;5086943;28;20435;-66
2023/01/07 14:22:50;;;;;;;;;;;10.00;99.90;;;;;;5090154;28;19930;-65
2023/01/07 14:25:32;;;;;;;;;;;10.10;99.90;;;;;;5088152;28;19951;-66
2023/01/07 14:28:33;;;;;;;;;;;10.00;99.90;;;;;;5088250;28;19924;-66
2023/01/07 14:31:01;;;;;;;;;;;10.10;99.90;;;;;;5023019;28;19935;-67
2023/01/07 14:33:33;;;;;;;;;;;10.10;99.90;;;;;;5029880;28;20409;-64
2023/01/07 14:36:02;;;;;;;;;;;10.10;99.90;;;;;;5061222;28;19924;-67
2023/01/07 14:39:00;;;;;;;;;;;10.10;99.90;;;;;;5085337;28;20447;-64
2023/01/07 14:41:28;;;;;;;;;;;10.10;99.90;;;;;;5024244;28;19925;-66
2023/01/07 14:44:13;;;;;;;;;;;10.00;99.90;;;;;;5077181;28;19978;-66